Station: Warracknabeal Airport  

  Atmospheric Gas Attenuation - ITU Rec 676-11   ----------------- dB/100km -----------------
Date Time Temp RH % AH g/m3 Dew Point Wind Direction Speed kph Gust kph Barometer mB Rainfall Since 9am 24GHz 47GHz 76GHz 122GHz 134GHz 241GHz
08/05 12:30 15.4 69 9.07 9.7 33 39 1026.3 0 20.5 26.7 41.5 108.7 103.6 356.9
08/05 12:20 15.6 68 9.04 9.7 33 37 1026.4 0 20.4 26.6 41.2 108.1 103.0 354.6
08/05 12:10 15 71 9.1 9.8 30 35 1026.4 0 20.6 26.8 41.8 109.6 104.6 360.1
08/05 12:00 15.5 68 8.99 9.6 32 41 1026.3 0 20.3 26.5 41.1 107.7 102.4 352.7
08/05 11:50 15.5 70 9.25 10.1 28 30 1026.3 0 20.9 26.9 42.1 110.5 105.9 364.8
08/05 11:40 15.4 68 8.93 9.5 37 41 1026.3 0 20.2 26.4 40.9 107.2 101.8 350.4
08/05 11:30 15.9 71 9.61 10.7 30 37 1026.3 0 21.6 27.4 43.4 113.9 110.1 379.7
08/05 11:20 15.6 71 9.44 10.4 30 32 1026.5 0 21.3 27.2 42.9 112.5 108.3 373.2
08/05 11:10 15 73 9.36 10.2 30 33 1026.6 0 21.1 27.3 42.9 112.5 108.1 372.4
08/05 11:00 14.6 72 9.01 9.6 24 33 1026.7 0 20.4 26.8 41.7 109.2 103.9 357.8
08/05 10:50 14.6 72 9.01 9.6 30 32 1026.8 0 20.4 26.8 41.7 109.2 103.9 357.8
08/05 10:40 15 73 9.36 10.2 24 28 1026.8 0 21.1 27.3 42.9 112.5 108.1 372.4
08/05 10:30 14.6 74 9.26 10 28 37 1026.8 0 20.9 27.2 42.7 111.9 107.3 369.6
08/05 10:20 14.2 76 9.28 10 28 33 1027 0 21.0 27.4 43.0 112.8 108.1 372.5
08/05 10:10 13.8 77 9.17 9.8 28 33 1027 0 20.8 27.4 42.7 112.1 107.2 369.2
08/05 10:00 13.9 79 9.47 10.3 28 39 1026.9 0 21.4 27.8 43.9 115.3 111.2 383.0
08/05 09:50 13.5 79 9.24 9.9 30 37 1026.8 0 21.0 27.6 43.2 113.3 108.6 373.9
08/05 09:40 13.4 81 9.42 10.2 32 39 1026.7 0 21.3 27.9 44.0 115.5 111.2 383.0
08/05 09:30 13.3 82 9.47 10.3 35 46 1026.7 0 21.5 28.0 44.3 116.2 112.0 385.9
08/05 09:20 13.5 84 9.83 10.9 28 33 1026.6 0 22.2 28.5 45.7 119.9 116.7 402.4
08/05 09:10 13.1 85 9.7 10.6 32 39 1026.4 0 22.0 28.4 45.3 119.0 115.5 398.0
08/05 09:00 13 88 9.98 11.1 28 39 1026.5 0 22.6 29.0 46.6 122.4 119.6 412.3
08/05 08:50 12.8 87 9.75 10.7 35 44 1026.5 0 22.1 28.6 45.7 120.1 116.6 402.0
08/05 08:40 12.3 92 9.99 11 28 30 1026.4 0 22.6 29.2 47.1 123.6 120.8 416.5
08/05 08:30 12 96 10.23 11.4 17 24 1026.3 0 23.2 29.7 48.3 126.9 124.7 430.2
08/05 08:20 11.8 96 10.11 11.2 20 24 1026.2 0 22.9 29.6 47.9 125.8 123.3 425.2
08/05 08:10 11.7 96 10.04 11.1 26 32 1026.1 0 22.8 29.5 47.6 125.1 122.5 422.2
08/05 08:00 11.7 95 9.94 10.9 20 32 1026 0 22.6 29.3 47.2 123.9 121.0 417.2
08/05 07:50 11.7 95 9.94 10.9 22 24 1025.9 0 22.6 29.3 47.2 123.9 121.0 417.1
08/05 07:40 11.7 94 9.83 10.8 26 30 1025.6 0 22.3 29.1 46.7 122.6 119.4 411.5
08/05 07:30 11.8 91 9.58 10.4 28 35 1025.4 0 21.8 28.6 45.5 119.5 115.7 398.5
08/05 07:20 12 89 9.49 10.2 28 32 1025.3 0 21.6 28.4 45.0 118.2 114.1 393.0
08/05 07:10 11.8 92 9.68 10.5 26 30 1025.4 0 22.0 28.8 46.0 120.7 117.1 403.4
08/05 07:00 11.9 91 9.64 10.5 28 35 1025.2 0 21.9 28.7 45.7 120.1 116.3 400.9
08/05 06:50 11.9 91 9.64 10.5 24 26 1025.2 0 21.9 28.7 45.7 120.1 116.3 400.9
08/05 06:40 11.7 93 9.73 10.6 24 28 1025.3 0 22.1 28.9 46.2 121.4 117.9 406.4
08/05 06:30 11.9 91 9.64 10.5 22 30 1025.2 0 21.9 28.7 45.7 120.1 116.3 400.9
08/05 06:20 11.8 92 9.68 10.5 24 32 1025.3 0 22.0 28.8 46.0 120.7 117.1 403.4
08/05 06:10 11.8 92 9.68 10.5 28 33 1025.3 0 22.0 28.8 46.0 120.7 117.1 403.4
08/05 06:00 11.9 90 9.53 10.3 22 32 1025.1 0 21.7 28.5 45.2 118.8 114.8 395.4
08/05 05:50 12 89 9.49 10.2 20 22 1025.2 0 21.6 28.4 45.0 118.2 114.1 392.9
08/05 05:40 12.1 88 9.44 10.2 22 26 1025.1 0 21.5 28.3 44.7 117.4 113.2 389.9
08/05 05:30 11.9 89 9.43 10.1 24 33 1024.9 0 21.4 28.3 44.8 117.6 113.3 390.4
08/05 05:20 11.9 90 9.53 10.3 24 28 1025 0 21.7 28.5 45.2 118.8 114.8 395.3
08/05 05:10 11.8 91 9.58 10.4 22 28 1024.7 0 21.8 28.6 45.5 119.5 115.6 398.2
08/05 05:00 11.9 89 9.43 10.1 24 35 1024.5 0 21.5 28.3 44.8 117.6 113.3 390.3
08/05 04:50 12 87 9.27 9.9 22 26 1024.5 0 21.1 28.0 44.0 115.6 110.9 381.9
08/05 04:40 12.1 86 9.22 9.8 19 22 1024.5 0 21.0 27.9 43.8 114.9 110.1 379.0
08/05 04:30 12.1 85 9.12 9.7 22 30 1024.4 0 20.8 27.7 43.3 113.7 108.7 374.1
08/05 04:20 12.1 85 9.12 9.7 24 30 1024.4 0 20.8 27.7 43.3 113.7 108.7 374.1
08/05 04:10 12 86 9.17 9.7 28 32 1024.4 0 20.9 27.8 43.6 114.4 109.5 377.0
08/05 04:00 11.9 86 9.11 9.6 24 33 1024.5 0 20.8 27.7 43.4 113.9 108.8 374.6
08/05 03:50 11.9 86 9.11 9.6 24 32 1024.5 0 20.8 27.7 43.4 113.9 108.8 374.6
08/05 03:40 11.9 85 9 9.5 24 28 1024.6 0 20.5 27.6 43.0 112.7 107.3 369.3
08/05 03:30 11.9 85 9 9.5 24 35 1024.7 0 20.5 27.6 43.0 112.7 107.3 369.3
08/05 03:20 11.9 84 8.9 9.3 24 30 1024.8 0 20.3 27.4 42.5 111.6 105.9 364.5
08/05 03:10 11.8 85 8.95 9.4 20 26 1025 0 20.4 27.5 42.8 112.3 106.8 367.4
08/05 03:00 11.7 85 8.89 9.3 24 32 1025 0 20.3 27.5 42.6 111.8 106.1 365.0
08/05 02:50 11.6 85 8.84 9.2 24 28 1025.1 0 20.2 27.4 42.5 111.4 105.5 363.1
08/05 02:40 11.4 85 8.73 9 22 26 1025.1 0 20.0 27.3 42.1 110.4 104.3 358.7
08/05 02:30 11.4 85 8.73 9 26 32 1025 0 20.0 27.3 42.1 110.4 104.3 358.6
08/05 02:20 11.3 85 8.67 8.9 24 28 1025.2 0 19.8 27.2 41.9 109.9 103.6 356.3
08/05 02:10 11.4 86 8.83 9.1 30 35 1025.3 0 20.2 27.5 42.5 111.6 105.7 363.6
08/05 02:00 11.3 86 8.77 9 30 41 1025.2 0 20.1 27.4 42.3 111.0 105.0 361.1
08/05 01:50 11.2 86 8.72 8.9 28 32 1025.2 0 20.0 27.3 42.2 110.6 104.4 359.1
08/05 01:40 11.2 85 8.62 8.8 26 30 1025.2 0 19.7 27.2 41.8 109.5 103.1 354.3
08/05 01:30 11 85 8.51 8.6 26 35 1025.2 0 19.5 27.0 41.4 108.5 101.8 349.9
08/05 01:20 10.8 85 8.4 8.4 22 28 1025.3 0 19.3 26.9 41.1 107.6 100.6 345.5
08/05 01:10 10.6 85 8.3 8.2 22 28 1025.4 0 19.1 26.8 40.7 106.8 99.4 341.6
08/05 01:00 10.6 85 8.3 8.2 24 30 1025.5 0 19.1 26.8 40.8 106.8 99.5 341.6
08/05 00:50 10.4 85 8.19 8 24 30 1025.8 0 18.9 26.7 40.4 105.8 98.2 337.3
08/05 00:40 10.4 84 8.1 7.8 20 22 1025.9 0 18.7 26.6 40.0 104.9 97.0 333.0
08/05 00:30 10.3 85 8.14 7.9 19 22 1026 0 18.8 26.7 40.3 105.4 97.7 335.3
08/05 00:20 10.2 85 8.09 7.8 17 19 1026.1 0 18.7 26.6 40.1 105.0 97.1 333.4
08/05 00:10 10 84 7.9 7.4 17 20 1026.1 0 18.3 26.3 39.4 103.2 94.8 325.1
08/05 00:00 10.3 83 7.95 7.5 19 24 1026 0 18.4 26.3 39.5 103.3 95.1 326.2
07/05 23:50 10.3 82 7.85 7.4 20 24 1025.9 0 18.1 26.2 39.0 102.2 93.7 321.4
07/05 23:40 10.5 82 7.95 7.6 22 24 1025.8 0 18.3 26.3 39.4 103.1 94.8 325.3
07/05 23:30 10.4 82 7.9 7.5 20 28 1025.9 0 18.2 26.2 39.2 102.6 94.3 323.4
07/05 23:20 10.4 81 7.81 7.3 20 24 1026 0 18.0 26.1 38.8 101.7 93.0 319.1
07/05 23:10 10.2 81 7.71 7.1 20 24 1026.1 0 17.8 26.0 38.5 100.8 91.9 315.2
07/05 23:00 10.2 80 7.61 6.9 20 28 1026.2 0 17.6 25.8 38.1 99.7 90.6 310.5
07/05 22:50 10.3 79 7.57 6.8 20 26 1026.2 0 17.5 25.7 37.9 99.2 89.9 308.2
07/05 22:40 10.4 78 7.52 6.7 19 20 1026.3 0 17.4 25.6 37.7 98.5 89.2 305.5
07/05 22:30 10.7 77 7.56 6.8 19 24 1026.3 0 17.5 25.6 37.7 98.6 89.4 306.2
07/05 22:20 11 77 7.71 7.1 20 24 1026.5 0 17.8 25.8 38.2 99.9 91.0 312.1
07/05 22:10 11 76 7.61 6.9 20 24 1026.7 0 17.6 25.6 37.8 98.8 89.7 307.5
07/05 22:00 11 76 7.61 6.9 19 26 1026.6 0 17.6 25.6 37.8 98.8 89.7 307.5
07/05 21:50 11.1 75 7.56 6.8 22 28 1026.6 0 17.5 25.5 37.5 98.1 88.9 304.8
07/05 21:40 11 74 7.41 6.6 17 19 1026.3 0 17.2 25.3 36.9 96.6 87.0 298.1
07/05 21:30 10.9 73 7.26 6.3 19 24 1026.3 0 16.8 25.0 36.4 95.1 85.1 291.5
07/05 21:20 10.8 72 7.12 6 20 24 1026.3 0 16.6 24.8 35.9 93.7 83.4 285.4
07/05 21:10 10.7 72 7.07 5.9 19 20 1026.1 0 16.5 24.8 35.7 93.3 82.8 283.4
07/05 21:00 10.7 71 6.98 5.7 19 22 1026.1 0 16.3 24.6 35.4 92.3 81.7 279.3
07/05 20:50 10.8 71 7.02 5.8 19 24 1026.2 0 16.3 24.7 35.5 92.7 82.1 280.8
07/05 20:40 11 69 6.91 5.5 22 24 1026.3 0 16.1 24.5 35.0 91.3 80.5 275.1
07/05 20:30 10.7 70 6.88 5.5 17 22 1026.4 0 16.0 24.5 35.0 91.3 80.4 274.8
07/05 20:20 10.5 70 6.79 5.3 19 20 1026.4 0 15.9 24.4 34.7 90.6 79.4 271.4
07/05 20:10 10.7 68 6.68 5 17 19 1026.4 0 15.6 24.2 34.2 89.2 77.8 265.7
07/05 20:00 10.9 68 6.77 5.2 19 24 1026.3 0 15.8 24.3 34.4 89.9 78.7 269.1

Last Refresh: 08-May-2026 12:08:03

Bureau of Meteorology